Royal, Illinois
Current Conditions -  °F | °C
As of 4:30 AM on Monday 20 Oct 2014 (Local Time) from KTIP Reporting Station
Overcast Overcast  
Wind Chill: 53°   Ceiling: 6000
Heat Index: 53°   Visibility: 10mi
Dew Point: 45°   Wind: 14mph
Humidity: 75%   Direction: 220°SW
Pressure: 29.91"   Gusts: NA
Location:  40.19°N, 87.97°W
Report Text: KTIP 200930Z AUTO 22012KT 10SM OVC060 12/07 A2991 RMK AO2 T01150073
Loading
Personal Weather Stations






























Interactive Weather Map
Tropical Storm Tracking
New forecast layout! Learn more

10-Day Weather Forecast

Advertisements
Track Severe Weather on mobile